<?xml version="1.0" encoding="UTF-8" standalone="no" ?>
<gpx xmlns="http://www.topografix.com/GPX/1/1" xmlns:xsi="http://www.w3.org/2001/XMLSchema-instance" xsi:schemaLocation="http://www.topografix.com/GPX/1/1 http://www.topografix.com/GPX/1/1/gpx.xsd" version="1.1" creator="VisuGPX - https://www.visugpx.com">
  <metadata>
    <name>2025-03-23  Randonnée TwoNav</name>
    <desc><![CDATA[2025-03-23_115541.trk]]></desc>
  </metadata>
  <trk>
    <name><![CDATA[2025-03-23  Randonnée TwoNav_1]]></name>
    <trkseg>
      <trkpt lat="48.09682" lon="6.63533">
        <ele>703.6</ele>
        <time>2025-03-23T10:55:41Z</time>
      </trkpt>
      <trkpt lat="48.09682" lon="6.63533">
        <ele>703.6</ele>
        <time>2025-03-23T10:55:42Z</time>
      </trkpt>
      <trkpt lat="48.09682" lon="6.63533">
        <ele>703.6</ele>
        <time>2025-03-23T10:55:43Z</time>
      </trkpt>
      <trkpt lat="48.09682" lon="6.63533">
        <ele>703.6</ele>
        <time>2025-03-23T10:55:44Z</time>
      </trkpt>
      <trkpt lat="48.09682" lon="6.63533">
        <ele>703.6</ele>
        <time>2025-03-23T10:55:45Z</time>
      </trkpt>
      <trkpt lat="48.09682" lon="6.63533">
        <ele>703.6</ele>
        <time>2025-03-23T10:55:46Z</time>
      </trkpt>
      <trkpt lat="48.09683" lon="6.63533">
        <ele>703.6</ele>
        <time>2025-03-23T10:55:54Z</time>
      </trkpt>
      <trkpt lat="48.09683" lon="6.63533">
        <ele>703.6</ele>
        <time>2025-03-23T10:55:55Z</time>
      </trkpt>
      <trkpt lat="48.09683" lon="6.63533">
        <ele>703.6</ele>
        <time>2025-03-23T10:55:56Z</time>
      </trkpt>
      <trkpt lat="48.09683" lon="6.63533">
        <ele>703.6</ele>
        <time>2025-03-23T10:55:57Z</time>
      </trkpt>
      <trkpt lat="48.09683" lon="6.63533">
        <ele>703.6</ele>
        <time>2025-03-23T10:55:58Z</time>
      </trkpt>
      <trkpt lat="48.09681" lon="6.63534">
        <ele>703.7</ele>
        <time>2025-03-23T10:56:04Z</time>
      </trkpt>
      <trkpt lat="48.09681" lon="6.63534">
        <ele>703.7</ele>
        <time>2025-03-23T10:56:05Z</time>
      </trkpt>
      <trkpt lat="48.0968" lon="6.63535">
        <ele>703.8</ele>
        <time>2025-03-23T10:56:06Z</time>
      </trkpt>
      <trkpt lat="48.09675" lon="6.63546">
        <ele>704.4</ele>
        <time>2025-03-23T10:56:16Z</time>
      </trkpt>
      <trkpt lat="48.09672" lon="6.63559">
        <ele>705.1</ele>
        <time>2025-03-23T10:56:27Z</time>
      </trkpt>
      <trkpt lat="48.09668" lon="6.63572">
        <ele>706.1</ele>
        <time>2025-03-23T10:56:38Z</time>
      </trkpt>
      <trkpt lat="48.09665" lon="6.63585">
        <ele>707.2</ele>
        <time>2025-03-23T10:56:48Z</time>
      </trkpt>
      <trkpt lat="48.09664" lon="6.636">
        <ele>708.6</ele>
        <time>2025-03-23T10:56:57Z</time>
      </trkpt>
      <trkpt lat="48.09664" lon="6.63615">
        <ele>709.9</ele>
        <time>2025-03-23T10:57:07Z</time>
      </trkpt>
      <trkpt lat="48.0966" lon="6.63628">
        <ele>711.2</ele>
        <time>2025-03-23T10:57:14Z</time>
      </trkpt>
      <trkpt lat="48.09651" lon="6.63636">
        <ele>712.4</ele>
        <time>2025-03-23T10:57:20Z</time>
      </trkpt>
      <trkpt lat="48.09643" lon="6.63644">
        <ele>713.4</ele>
        <time>2025-03-23T10:57:28Z</time>
      </trkpt>
      <trkpt lat="48.09636" lon="6.63654">
        <ele>714.3</ele>
        <time>2025-03-23T10:57:36Z</time>
      </trkpt>
      <trkpt lat="48.09628" lon="6.63659">
        <ele>715.2</ele>
        <time>2025-03-23T10:57:43Z</time>
      </trkpt>
      <trkpt lat="48.09622" lon="6.6367">
        <ele>716.2</ele>
        <time>2025-03-23T10:57:54Z</time>
      </trkpt>
      <trkpt lat="48.09618" lon="6.63684">
        <ele>717.7</ele>
        <time>2025-03-23T10:58:04Z</time>
      </trkpt>
      <trkpt lat="48.09612" lon="6.63693">
        <ele>719.6</ele>
        <time>2025-03-23T10:58:11Z</time>
      </trkpt>
      <trkpt lat="48.09603" lon="6.63701">
        <ele>722.1</ele>
        <time>2025-03-23T10:58:19Z</time>
      </trkpt>
      <trkpt lat="48.09594" lon="6.63695">
        <ele>724.5</ele>
        <time>2025-03-23T10:58:30Z</time>
      </trkpt>
      <trkpt lat="48.0959" lon="6.63708">
        <ele>727</ele>
        <time>2025-03-23T10:59:02Z</time>
      </trkpt>
      <trkpt lat="48.09583" lon="6.63716">
        <ele>729.4</ele>
        <time>2025-03-23T10:59:16Z</time>
      </trkpt>
      <trkpt lat="48.09573" lon="6.63713">
        <ele>732.2</ele>
        <time>2025-03-23T11:00:01Z</time>
      </trkpt>
      <trkpt lat="48.09565" lon="6.6371">
        <ele>734.6</ele>
        <time>2025-03-23T11:00:19Z</time>
      </trkpt>
      <trkpt lat="48.09556" lon="6.63715">
        <ele>736.8</ele>
        <time>2025-03-23T11:00:34Z</time>
      </trkpt>
      <trkpt lat="48.09547" lon="6.63716">
        <ele>738.7</ele>
        <time>2025-03-23T11:00:49Z</time>
      </trkpt>
      <trkpt lat="48.09538" lon="6.63712">
        <ele>739.9</ele>
        <time>2025-03-23T11:01:02Z</time>
      </trkpt>
      <trkpt lat="48.09529" lon="6.63711">
        <ele>741.8</ele>
        <time>2025-03-23T11:01:10Z</time>
      </trkpt>
      <trkpt lat="48.0952" lon="6.63707">
        <ele>744</ele>
        <time>2025-03-23T11:01:24Z</time>
      </trkpt>
      <trkpt lat="48.09511" lon="6.63711">
        <ele>746</ele>
        <time>2025-03-23T11:01:36Z</time>
      </trkpt>
      <trkpt lat="48.09501" lon="6.63713">
        <ele>747.8</ele>
        <time>2025-03-23T11:01:50Z</time>
      </trkpt>
      <trkpt lat="48.09491" lon="6.6371">
        <ele>749</ele>
        <time>2025-03-23T11:01:58Z</time>
      </trkpt>
      <trkpt lat="48.09482" lon="6.63712">
        <ele>750</ele>
        <time>2025-03-23T11:02:05Z</time>
      </trkpt>
      <trkpt lat="48.09473" lon="6.63713">
        <ele>751.1</ele>
        <time>2025-03-23T11:02:16Z</time>
      </trkpt>
      <trkpt lat="48.09463" lon="6.63714">
        <ele>752.3</ele>
        <time>2025-03-23T11:02:25Z</time>
      </trkpt>
      <trkpt lat="48.09454" lon="6.63718">
        <ele>753.7</ele>
        <time>2025-03-23T11:02:35Z</time>
      </trkpt>
      <trkpt lat="48.09445" lon="6.63719">
        <ele>755.1</ele>
        <time>2025-03-23T11:02:44Z</time>
      </trkpt>
      <trkpt lat="48.09435" lon="6.63722">
        <ele>756.9</ele>
        <time>2025-03-23T11:02:53Z</time>
      </trkpt>
      <trkpt lat="48.09426" lon="6.63726">
        <ele>758.8</ele>
        <time>2025-03-23T11:03:03Z</time>
      </trkpt>
      <trkpt lat="48.09417" lon="6.6373">
        <ele>760.5</ele>
        <time>2025-03-23T11:03:12Z</time>
      </trkpt>
      <trkpt lat="48.09408" lon="6.63733">
        <ele>762.2</ele>
        <time>2025-03-23T11:03:23Z</time>
      </trkpt>
      <trkpt lat="48.09399" lon="6.63735">
        <ele>764</ele>
        <time>2025-03-23T11:03:32Z</time>
      </trkpt>
      <trkpt lat="48.09392" lon="6.63744">
        <ele>765.6</ele>
        <time>2025-03-23T11:03:53Z</time>
      </trkpt>
      <trkpt lat="48.09386" lon="6.63756">
        <ele>767.4</ele>
        <time>2025-03-23T11:04:06Z</time>
      </trkpt>
      <trkpt lat="48.0938" lon="6.63765">
        <ele>769.4</ele>
        <time>2025-03-23T11:04:20Z</time>
      </trkpt>
      <trkpt lat="48.09376" lon="6.63777">
        <ele>771.6</ele>
        <time>2025-03-23T11:04:36Z</time>
      </trkpt>
      <trkpt lat="48.09374" lon="6.63791">
        <ele>773.7</ele>
        <time>2025-03-23T11:05:07Z</time>
      </trkpt>
      <trkpt lat="48.09371" lon="6.63794">
        <ele>774.4</ele>
        <time>2025-03-23T11:05:52Z</time>
      </trkpt>
      <trkpt lat="48.0937" lon="6.63794">
        <ele>774.5</ele>
        <time>2025-03-23T11:05:53Z</time>
      </trkpt>
      <trkpt lat="48.0937" lon="6.63792">
        <ele>774.8</ele>
        <time>2025-03-23T11:05:59Z</time>
      </trkpt>
      <trkpt lat="48.0937" lon="6.63792">
        <ele>774.8</ele>
        <time>2025-03-23T11:06:00Z</time>
      </trkpt>
      <trkpt lat="48.0937" lon="6.63792">
        <ele>774.9</ele>
        <time>2025-03-23T11:06:01Z</time>
      </trkpt>
      <trkpt lat="48.0937" lon="6.63793">
        <ele>774.9</ele>
        <time>2025-03-23T11:06:06Z</time>
      </trkpt>
      <trkpt lat="48.0937" lon="6.63793">
        <ele>774.9</ele>
        <time>2025-03-23T11:06:07Z</time>
      </trkpt>
      <trkpt lat="48.0937" lon="6.63793">
        <ele>775</ele>
        <time>2025-03-23T11:07:17Z</time>
      </trkpt>
      <trkpt lat="48.0937" lon="6.63793">
        <ele>775</ele>
        <time>2025-03-23T11:07:18Z</time>
      </trkpt>
      <trkpt lat="48.0937" lon="6.63793">
        <ele>775</ele>
        <time>2025-03-23T11:07:19Z</time>
      </trkpt>
      <trkpt lat="48.0937" lon="6.63793">
        <ele>775</ele>
        <time>2025-03-23T11:07:20Z</time>
      </trkpt>
      <trkpt lat="48.0937" lon="6.63793">
        <ele>775.1</ele>
        <time>2025-03-23T11:08:24Z</time>
      </trkpt>
      <trkpt lat="48.0937" lon="6.63793">
        <ele>775.1</ele>
        <time>2025-03-23T11:08:25Z</time>
      </trkpt>
      <trkpt lat="48.0937" lon="6.63793">
        <ele>775.1</ele>
        <time>2025-03-23T11:08:26Z</time>
      </trkpt>
      <trkpt lat="48.0937" lon="6.63793">
        <ele>775.1</ele>
        <time>2025-03-23T11:08:27Z</time>
      </trkpt>
      <trkpt lat="48.0937" lon="6.63793">
        <ele>775.1</ele>
        <time>2025-03-23T11:09:16Z</time>
      </trkpt>
      <trkpt lat="48.0937" lon="6.63794">
        <ele>775.2</ele>
        <time>2025-03-23T11:09:17Z</time>
      </trkpt>
      <trkpt lat="48.0937" lon="6.63795">
        <ele>775.3</ele>
        <time>2025-03-23T11:09:18Z</time>
      </trkpt>
      <trkpt lat="48.0937" lon="6.63795">
        <ele>775.4</ele>
        <time>2025-03-23T11:09:24Z</time>
      </trkpt>
      <trkpt lat="48.0937" lon="6.63795">
        <ele>775.4</ele>
        <time>2025-03-23T11:09:25Z</time>
      </trkpt>
      <trkpt lat="48.0937" lon="6.63796">
        <ele>775.5</ele>
        <time>2025-03-23T11:09:44Z</time>
      </trkpt>
      <trkpt lat="48.0937" lon="6.63796">
        <ele>775.5</ele>
        <time>2025-03-23T11:09:45Z</time>
      </trkpt>
      <trkpt lat="48.0937" lon="6.63795">
        <ele>775.5</ele>
        <time>2025-03-23T11:09:46Z</time>
      </trkpt>
      <trkpt lat="48.09371" lon="6.63797">
        <ele>775.8</ele>
        <time>2025-03-23T11:10:26Z</time>
      </trkpt>
      <trkpt lat="48.09371" lon="6.63797">
        <ele>775.8</ele>
        <time>2025-03-23T11:10:27Z</time>
      </trkpt>
      <trkpt lat="48.09371" lon="6.63796">
        <ele>775.8</ele>
        <time>2025-03-23T11:10:28Z</time>
      </trkpt>
      <trkpt lat="48.09371" lon="6.63796">
        <ele>775.8</ele>
        <time>2025-03-23T11:10:29Z</time>
      </trkpt>
      <trkpt lat="48.09371" lon="6.63796">
        <ele>775.8</ele>
        <time>2025-03-23T11:10:30Z</time>
      </trkpt>
      <trkpt lat="48.09363" lon="6.63787">
        <ele>775.8</ele>
        <time>2025-03-23T11:10:47Z</time>
      </trkpt>
      <trkpt lat="48.09354" lon="6.63785">
        <ele>775.7</ele>
        <time>2025-03-23T11:10:56Z</time>
      </trkpt>
      <trkpt lat="48.09345" lon="6.63781">
        <ele>775.5</ele>
        <time>2025-03-23T11:11:04Z</time>
      </trkpt>
      <trkpt lat="48.09335" lon="6.63778">
        <ele>775.3</ele>
        <time>2025-03-23T11:11:12Z</time>
      </trkpt>
      <trkpt lat="48.09326" lon="6.63775">
        <ele>775.2</ele>
        <time>2025-03-23T11:11:20Z</time>
      </trkpt>
      <trkpt lat="48.09317" lon="6.63772">
        <ele>775</ele>
        <time>2025-03-23T11:11:27Z</time>
      </trkpt>
      <trkpt lat="48.09307" lon="6.63771">
        <ele>774.8</ele>
        <time>2025-03-23T11:11:36Z</time>
      </trkpt>
      <trkpt lat="48.09298" lon="6.63764">
        <ele>774.6</ele>
        <time>2025-03-23T11:11:43Z</time>
      </trkpt>
      <trkpt lat="48.09293" lon="6.63752">
        <ele>774.2</ele>
        <time>2025-03-23T11:11:51Z</time>
      </trkpt>
      <trkpt lat="48.09288" lon="6.6374">
        <ele>773.6</ele>
        <time>2025-03-23T11:11:58Z</time>
      </trkpt>
      <trkpt lat="48.09281" lon="6.63728">
        <ele>772.9</ele>
        <time>2025-03-23T11:12:06Z</time>
      </trkpt>
      <trkpt lat="48.09279" lon="6.63714">
        <ele>771.9</ele>
        <time>2025-03-23T11:12:12Z</time>
      </trkpt>
      <trkpt lat="48.09279" lon="6.637">
        <ele>770.6</ele>
        <time>2025-03-23T11:12:20Z</time>
      </trkpt>
      <trkpt lat="48.09283" lon="6.63687">
        <ele>769</ele>
        <time>2025-03-23T11:12:28Z</time>
      </trkpt>
      <trkpt lat="48.09286" lon="6.63674">
        <ele>767.1</ele>
        <time>2025-03-23T11:12:40Z</time>
      </trkpt>
      <trkpt lat="48.09288" lon="6.6366">
        <ele>765</ele>
        <time>2025-03-23T11:12:50Z</time>
      </trkpt>
      <trkpt lat="48.0929" lon="6.63646">
        <ele>762.7</ele>
        <time>2025-03-23T11:12:59Z</time>
      </trkpt>
      <trkpt lat="48.09295" lon="6.63633">
        <ele>760.4</ele>
        <time>2025-03-23T11:13:09Z</time>
      </trkpt>
      <trkpt lat="48.09299" lon="6.63622">
        <ele>758.2</ele>
        <time>2025-03-23T11:13:19Z</time>
      </trkpt>
      <trkpt lat="48.09304" lon="6.63609">
        <ele>756</ele>
        <time>2025-03-23T11:13:27Z</time>
      </trkpt>
      <trkpt lat="48.09302" lon="6.63596">
        <ele>753.9</ele>
        <time>2025-03-23T11:13:37Z</time>
      </trkpt>
      <trkpt lat="48.09297" lon="6.63584">
        <ele>751.9</ele>
        <time>2025-03-23T11:13:48Z</time>
      </trkpt>
      <trkpt lat="48.09296" lon="6.63569">
        <ele>750.1</ele>
        <time>2025-03-23T11:13:58Z</time>
      </trkpt>
      <trkpt lat="48.09293" lon="6.63556">
        <ele>748.5</ele>
        <time>2025-03-23T11:14:07Z</time>
      </trkpt>
      <trkpt lat="48.09292" lon="6.63542">
        <ele>746.9</ele>
        <time>2025-03-23T11:14:14Z</time>
      </trkpt>
      <trkpt lat="48.09291" lon="6.63528">
        <ele>745.5</ele>
        <time>2025-03-23T11:14:22Z</time>
      </trkpt>
      <trkpt lat="48.09286" lon="6.63516">
        <ele>744.2</ele>
        <time>2025-03-23T11:14:28Z</time>
      </trkpt>
      <trkpt lat="48.09281" lon="6.63504">
        <ele>743.1</ele>
        <time>2025-03-23T11:14:39Z</time>
      </trkpt>
      <trkpt lat="48.0928" lon="6.63489">
        <ele>742.1</ele>
        <time>2025-03-23T11:14:45Z</time>
      </trkpt>
      <trkpt lat="48.09275" lon="6.63477">
        <ele>741.2</ele>
        <time>2025-03-23T11:14:55Z</time>
      </trkpt>
      <trkpt lat="48.09276" lon="6.6347">
        <ele>740.7</ele>
        <time>2025-03-23T11:15:04Z</time>
      </trkpt>
      <trkpt lat="48.09277" lon="6.63469">
        <ele>740.7</ele>
        <time>2025-03-23T11:15:05Z</time>
      </trkpt>
      <trkpt lat="48.09276" lon="6.63467">
        <ele>740.5</ele>
        <time>2025-03-23T11:15:08Z</time>
      </trkpt>
      <trkpt lat="48.09275" lon="6.63467">
        <ele>740.4</ele>
        <time>2025-03-23T11:15:09Z</time>
      </trkpt>
      <trkpt lat="48.09274" lon="6.63467">
        <ele>740.3</ele>
        <time>2025-03-23T11:15:10Z</time>
      </trkpt>
      <trkpt lat="48.09275" lon="6.63453">
        <ele>739.3</ele>
        <time>2025-03-23T11:15:20Z</time>
      </trkpt>
      <trkpt lat="48.09271" lon="6.63438">
        <ele>738.3</ele>
        <time>2025-03-23T11:15:28Z</time>
      </trkpt>
      <trkpt lat="48.09267" lon="6.63425">
        <ele>737.4</ele>
        <time>2025-03-23T11:15:38Z</time>
      </trkpt>
      <trkpt lat="48.09264" lon="6.63412">
        <ele>736.4</ele>
        <time>2025-03-23T11:15:48Z</time>
      </trkpt>
      <trkpt lat="48.09258" lon="6.634">
        <ele>735.4</ele>
        <time>2025-03-23T11:15:56Z</time>
      </trkpt>
      <trkpt lat="48.09255" lon="6.63386">
        <ele>734.3</ele>
        <time>2025-03-23T11:16:05Z</time>
      </trkpt>
      <trkpt lat="48.0925" lon="6.63373">
        <ele>733.3</ele>
        <time>2025-03-23T11:16:15Z</time>
      </trkpt>
      <trkpt lat="48.09246" lon="6.63359">
        <ele>732.1</ele>
        <time>2025-03-23T11:16:25Z</time>
      </trkpt>
      <trkpt lat="48.09243" lon="6.63344">
        <ele>730.7</ele>
        <time>2025-03-23T11:16:32Z</time>
      </trkpt>
      <trkpt lat="48.09246" lon="6.63331">
        <ele>729.6</ele>
        <time>2025-03-23T11:16:37Z</time>
      </trkpt>
      <trkpt lat="48.0925" lon="6.63317">
        <ele>728.5</ele>
        <time>2025-03-23T11:16:44Z</time>
      </trkpt>
      <trkpt lat="48.09251" lon="6.63303">
        <ele>727.5</ele>
        <time>2025-03-23T11:16:51Z</time>
      </trkpt>
      <trkpt lat="48.09246" lon="6.6329">
        <ele>727.1</ele>
        <time>2025-03-23T11:17:00Z</time>
      </trkpt>
      <trkpt lat="48.09243" lon="6.63276">
        <ele>726.9</ele>
        <time>2025-03-23T11:17:09Z</time>
      </trkpt>
      <trkpt lat="48.09236" lon="6.63263">
        <ele>726.8</ele>
        <time>2025-03-23T11:17:17Z</time>
      </trkpt>
      <trkpt lat="48.09232" lon="6.63251">
        <ele>726.6</ele>
        <time>2025-03-23T11:17:23Z</time>
      </trkpt>
      <trkpt lat="48.09228" lon="6.63238">
        <ele>726.4</ele>
        <time>2025-03-23T11:17:33Z</time>
      </trkpt>
      <trkpt lat="48.09226" lon="6.63225">
        <ele>726.2</ele>
        <time>2025-03-23T11:17:42Z</time>
      </trkpt>
      <trkpt lat="48.09221" lon="6.63212">
        <ele>725.9</ele>
        <time>2025-03-23T11:17:50Z</time>
      </trkpt>
      <trkpt lat="48.09215" lon="6.63201">
        <ele>725.6</ele>
        <time>2025-03-23T11:17:59Z</time>
      </trkpt>
      <trkpt lat="48.09214" lon="6.63187">
        <ele>725.3</ele>
        <time>2025-03-23T11:18:08Z</time>
      </trkpt>
      <trkpt lat="48.09212" lon="6.63182">
        <ele>725.2</ele>
        <time>2025-03-23T11:18:18Z</time>
      </trkpt>
      <trkpt lat="48.09212" lon="6.63183">
        <ele>725.2</ele>
        <time>2025-03-23T11:18:19Z</time>
      </trkpt>
      <trkpt lat="48.09212" lon="6.63183">
        <ele>725.2</ele>
        <time>2025-03-23T11:18:20Z</time>
      </trkpt>
      <trkpt lat="48.09212" lon="6.63182">
        <ele>725.2</ele>
        <time>2025-03-23T11:18:21Z</time>
      </trkpt>
      <trkpt lat="48.09212" lon="6.63182">
        <ele>725.2</ele>
        <time>2025-03-23T11:18:22Z</time>
      </trkpt>
      <trkpt lat="48.09212" lon="6.63182">
        <ele>725.2</ele>
        <time>2025-03-23T11:18:23Z</time>
      </trkpt>
      <trkpt lat="48.09212" lon="6.63182">
        <ele>725.2</ele>
        <time>2025-03-23T11:18:24Z</time>
      </trkpt>
      <trkpt lat="48.09212" lon="6.63182">
        <ele>725.2</ele>
        <time>2025-03-23T11:18:25Z</time>
      </trkpt>
      <trkpt lat="48.09213" lon="6.63179">
        <ele>725.1</ele>
        <time>2025-03-23T11:18:51Z</time>
      </trkpt>
      <trkpt lat="48.09213" lon="6.63179">
        <ele>725.1</ele>
        <time>2025-03-23T11:18:52Z</time>
      </trkpt>
      <trkpt lat="48.09213" lon="6.63179">
        <ele>725.1</ele>
        <time>2025-03-23T11:18:53Z</time>
      </trkpt>
      <trkpt lat="48.09213" lon="6.63177">
        <ele>725</ele>
        <time>2025-03-23T11:18:59Z</time>
      </trkpt>
      <trkpt lat="48.09213" lon="6.63177">
        <ele>725</ele>
        <time>2025-03-23T11:19:00Z</time>
      </trkpt>
      <trkpt lat="48.09213" lon="6.63177">
        <ele>725</ele>
        <time>2025-03-23T11:19:21Z</time>
      </trkpt>
      <trkpt lat="48.09213" lon="6.63176">
        <ele>725</ele>
        <time>2025-03-23T11:19:22Z</time>
      </trkpt>
      <trkpt lat="48.09213" lon="6.63176">
        <ele>725</ele>
        <time>2025-03-23T11:19:26Z</time>
      </trkpt>
      <trkpt lat="48.09213" lon="6.63176">
        <ele>725</ele>
        <time>2025-03-23T11:19:27Z</time>
      </trkpt>
      <trkpt lat="48.09214" lon="6.63174">
        <ele>724.9</ele>
        <time>2025-03-23T11:20:06Z</time>
      </trkpt>
      <trkpt lat="48.09214" lon="6.63174">
        <ele>724.9</ele>
        <time>2025-03-23T11:20:07Z</time>
      </trkpt>
      <trkpt lat="48.09217" lon="6.63187">
        <ele>724.6</ele>
        <time>2025-03-23T11:20:26Z</time>
      </trkpt>
      <trkpt lat="48.09223" lon="6.63199">
        <ele>724.1</ele>
        <time>2025-03-23T11:20:38Z</time>
      </trkpt>
      <trkpt lat="48.09228" lon="6.63211">
        <ele>724.8</ele>
        <time>2025-03-23T11:20:45Z</time>
      </trkpt>
      <trkpt lat="48.09232" lon="6.63224">
        <ele>725.5</ele>
        <time>2025-03-23T11:20:54Z</time>
      </trkpt>
      <trkpt lat="48.09235" lon="6.63239">
        <ele>726.1</ele>
        <time>2025-03-23T11:21:02Z</time>
      </trkpt>
      <trkpt lat="48.0924" lon="6.6325">
        <ele>726.5</ele>
        <time>2025-03-23T11:21:10Z</time>
      </trkpt>
      <trkpt lat="48.09243" lon="6.63263">
        <ele>726.8</ele>
        <time>2025-03-23T11:21:20Z</time>
      </trkpt>
      <trkpt lat="48.09243" lon="6.63265">
        <ele>726.8</ele>
        <time>2025-03-23T11:21:26Z</time>
      </trkpt>
      <trkpt lat="48.09243" lon="6.63265">
        <ele>726.8</ele>
        <time>2025-03-23T11:21:27Z</time>
      </trkpt>
      <trkpt lat="48.09244" lon="6.63267">
        <ele>726.8</ele>
        <time>2025-03-23T11:22:21Z</time>
      </trkpt>
      <trkpt lat="48.09243" lon="6.63267">
        <ele>726.8</ele>
        <time>2025-03-23T11:22:22Z</time>
      </trkpt>
      <trkpt lat="48.09249" lon="6.63278">
        <ele>727</ele>
        <time>2025-03-23T11:22:34Z</time>
      </trkpt>
      <trkpt lat="48.09253" lon="6.63292">
        <ele>727.3</ele>
        <time>2025-03-23T11:22:41Z</time>
      </trkpt>
      <trkpt lat="48.09252" lon="6.63305">
        <ele>728.1</ele>
        <time>2025-03-23T11:22:49Z</time>
      </trkpt>
      <trkpt lat="48.09251" lon="6.63319">
        <ele>729</ele>
        <time>2025-03-23T11:22:58Z</time>
      </trkpt>
      <trkpt lat="48.09251" lon="6.63333">
        <ele>730.2</ele>
        <time>2025-03-23T11:23:09Z</time>
      </trkpt>
      <trkpt lat="48.09254" lon="6.63346">
        <ele>731.5</ele>
        <time>2025-03-23T11:23:17Z</time>
      </trkpt>
      <trkpt lat="48.09258" lon="6.63359">
        <ele>732.7</ele>
        <time>2025-03-23T11:23:26Z</time>
      </trkpt>
      <trkpt lat="48.09261" lon="6.63374">
        <ele>733.8</ele>
        <time>2025-03-23T11:23:34Z</time>
      </trkpt>
      <trkpt lat="48.09263" lon="6.63387">
        <ele>734.7</ele>
        <time>2025-03-23T11:23:43Z</time>
      </trkpt>
      <trkpt lat="48.09268" lon="6.63399">
        <ele>735.7</ele>
        <time>2025-03-23T11:23:50Z</time>
      </trkpt>
      <trkpt lat="48.0927" lon="6.63413">
        <ele>736.8</ele>
        <time>2025-03-23T11:23:58Z</time>
      </trkpt>
      <trkpt lat="48.09274" lon="6.63425">
        <ele>737.7</ele>
        <time>2025-03-23T11:24:06Z</time>
      </trkpt>
      <trkpt lat="48.09277" lon="6.63439">
        <ele>738.7</ele>
        <time>2025-03-23T11:24:15Z</time>
      </trkpt>
      <trkpt lat="48.09277" lon="6.63453">
        <ele>739.7</ele>
        <time>2025-03-23T11:24:23Z</time>
      </trkpt>
      <trkpt lat="48.09279" lon="6.63468">
        <ele>740.7</ele>
        <time>2025-03-23T11:24:31Z</time>
      </trkpt>
      <trkpt lat="48.09277" lon="6.63482">
        <ele>742.4</ele>
        <time>2025-03-23T11:24:43Z</time>
      </trkpt>
      <trkpt lat="48.09273" lon="6.63496">
        <ele>744.3</ele>
        <time>2025-03-23T11:24:52Z</time>
      </trkpt>
      <trkpt lat="48.09271" lon="6.63509">
        <ele>746</ele>
        <time>2025-03-23T11:25:00Z</time>
      </trkpt>
      <trkpt lat="48.09268" lon="6.63522">
        <ele>747.6</ele>
        <time>2025-03-23T11:25:11Z</time>
      </trkpt>
      <trkpt lat="48.09265" lon="6.63536">
        <ele>749.2</ele>
        <time>2025-03-23T11:25:21Z</time>
      </trkpt>
      <trkpt lat="48.09259" lon="6.63547">
        <ele>750.5</ele>
        <time>2025-03-23T11:25:31Z</time>
      </trkpt>
      <trkpt lat="48.09251" lon="6.63557">
        <ele>751.8</ele>
        <time>2025-03-23T11:25:40Z</time>
      </trkpt>
      <trkpt lat="48.09244" lon="6.63567">
        <ele>752.7</ele>
        <time>2025-03-23T11:25:48Z</time>
      </trkpt>
      <trkpt lat="48.09238" lon="6.63576">
        <ele>753.5</ele>
        <time>2025-03-23T11:25:56Z</time>
      </trkpt>
      <trkpt lat="48.09229" lon="6.63583">
        <ele>754.3</ele>
        <time>2025-03-23T11:26:05Z</time>
      </trkpt>
      <trkpt lat="48.09221" lon="6.63592">
        <ele>754.9</ele>
        <time>2025-03-23T11:26:13Z</time>
      </trkpt>
      <trkpt lat="48.09214" lon="6.63599">
        <ele>755.2</ele>
        <time>2025-03-23T11:26:20Z</time>
      </trkpt>
      <trkpt lat="48.09205" lon="6.63608">
        <ele>755.3</ele>
        <time>2025-03-23T11:26:27Z</time>
      </trkpt>
      <trkpt lat="48.09199" lon="6.63618">
        <ele>755.2</ele>
        <time>2025-03-23T11:26:35Z</time>
      </trkpt>
      <trkpt lat="48.09193" lon="6.63628">
        <ele>755.1</ele>
        <time>2025-03-23T11:26:43Z</time>
      </trkpt>
      <trkpt lat="48.09185" lon="6.63636">
        <ele>755.1</ele>
        <time>2025-03-23T11:26:50Z</time>
      </trkpt>
      <trkpt lat="48.09178" lon="6.63647">
        <ele>755.2</ele>
        <time>2025-03-23T11:26:59Z</time>
      </trkpt>
      <trkpt lat="48.09171" lon="6.63657">
        <ele>755.3</ele>
        <time>2025-03-23T11:27:06Z</time>
      </trkpt>
      <trkpt lat="48.09165" lon="6.63666">
        <ele>755.5</ele>
        <time>2025-03-23T11:27:13Z</time>
      </trkpt>
      <trkpt lat="48.09158" lon="6.63675">
        <ele>755.6</ele>
        <time>2025-03-23T11:27:20Z</time>
      </trkpt>
      <trkpt lat="48.09151" lon="6.63686">
        <ele>755.4</ele>
        <time>2025-03-23T11:27:29Z</time>
      </trkpt>
      <trkpt lat="48.09144" lon="6.63694">
        <ele>755.2</ele>
        <time>2025-03-23T11:27:37Z</time>
      </trkpt>
      <trkpt lat="48.0914" lon="6.63706">
        <ele>754.9</ele>
        <time>2025-03-23T11:27:45Z</time>
      </trkpt>
      <trkpt lat="48.09137" lon="6.6372">
        <ele>754.5</ele>
        <time>2025-03-23T11:27:55Z</time>
      </trkpt>
      <trkpt lat="48.09136" lon="6.63734">
        <ele>753.9</ele>
        <time>2025-03-23T11:28:05Z</time>
      </trkpt>
      <trkpt lat="48.09133" lon="6.63748">
        <ele>752.9</ele>
        <time>2025-03-23T11:28:17Z</time>
      </trkpt>
      <trkpt lat="48.09135" lon="6.63762">
        <ele>751.5</ele>
        <time>2025-03-23T11:28:24Z</time>
      </trkpt>
      <trkpt lat="48.09134" lon="6.63776">
        <ele>750.2</ele>
        <time>2025-03-23T11:28:33Z</time>
      </trkpt>
      <trkpt lat="48.0914" lon="6.63788">
        <ele>749.1</ele>
        <time>2025-03-23T11:28:47Z</time>
      </trkpt>
      <trkpt lat="48.09145" lon="6.638">
        <ele>748.1</ele>
        <time>2025-03-23T11:28:57Z</time>
      </trkpt>
      <trkpt lat="48.09149" lon="6.63812">
        <ele>747</ele>
        <time>2025-03-23T11:29:08Z</time>
      </trkpt>
      <trkpt lat="48.09158" lon="6.63827">
        <ele>745</ele>
        <time>2025-03-23T11:29:21Z</time>
      </trkpt>
      <trkpt lat="48.09158" lon="6.63843">
        <ele>743.4</ele>
        <time>2025-03-23T11:29:28Z</time>
      </trkpt>
      <trkpt lat="48.09161" lon="6.63856">
        <ele>742</ele>
        <time>2025-03-23T11:29:32Z</time>
      </trkpt>
      <trkpt lat="48.09162" lon="6.63871">
        <ele>740.5</ele>
        <time>2025-03-23T11:29:42Z</time>
      </trkpt>
      <trkpt lat="48.09163" lon="6.63885">
        <ele>739.3</ele>
        <time>2025-03-23T11:29:48Z</time>
      </trkpt>
      <trkpt lat="48.09164" lon="6.639">
        <ele>738.1</ele>
        <time>2025-03-23T11:29:56Z</time>
      </trkpt>
      <trkpt lat="48.09163" lon="6.63914">
        <ele>736.9</ele>
        <time>2025-03-23T11:30:03Z</time>
      </trkpt>
      <trkpt lat="48.09164" lon="6.63929">
        <ele>735.5</ele>
        <time>2025-03-23T11:30:11Z</time>
      </trkpt>
      <trkpt lat="48.09162" lon="6.63943">
        <ele>734.2</ele>
        <time>2025-03-23T11:30:20Z</time>
      </trkpt>
      <trkpt lat="48.09157" lon="6.63954">
        <ele>732.8</ele>
        <time>2025-03-23T11:30:27Z</time>
      </trkpt>
      <trkpt lat="48.09151" lon="6.63965">
        <ele>731.4</ele>
        <time>2025-03-23T11:30:35Z</time>
      </trkpt>
      <trkpt lat="48.09144" lon="6.63973">
        <ele>730</ele>
        <time>2025-03-23T11:30:43Z</time>
      </trkpt>
      <trkpt lat="48.09137" lon="6.63983">
        <ele>728.7</ele>
        <time>2025-03-23T11:30:50Z</time>
      </trkpt>
      <trkpt lat="48.0913" lon="6.63993">
        <ele>727.4</ele>
        <time>2025-03-23T11:30:59Z</time>
      </trkpt>
      <trkpt lat="48.09124" lon="6.64004">
        <ele>726.3</ele>
        <time>2025-03-23T11:31:07Z</time>
      </trkpt>
      <trkpt lat="48.09119" lon="6.64016">
        <ele>725.2</ele>
        <time>2025-03-23T11:31:18Z</time>
      </trkpt>
      <trkpt lat="48.09111" lon="6.64025">
        <ele>724.2</ele>
        <time>2025-03-23T11:31:26Z</time>
      </trkpt>
      <trkpt lat="48.09105" lon="6.64036">
        <ele>723.2</ele>
        <time>2025-03-23T11:31:34Z</time>
      </trkpt>
      <trkpt lat="48.09097" lon="6.64045">
        <ele>722.4</ele>
        <time>2025-03-23T11:31:42Z</time>
      </trkpt>
      <trkpt lat="48.09092" lon="6.64057">
        <ele>721.6</ele>
        <time>2025-03-23T11:31:50Z</time>
      </trkpt>
      <trkpt lat="48.09086" lon="6.64068">
        <ele>721.1</ele>
        <time>2025-03-23T11:31:57Z</time>
      </trkpt>
      <trkpt lat="48.09085" lon="6.64082">
        <ele>720.8</ele>
        <time>2025-03-23T11:32:07Z</time>
      </trkpt>
      <trkpt lat="48.0909" lon="6.64094">
        <ele>720.7</ele>
        <time>2025-03-23T11:32:19Z</time>
      </trkpt>
      <trkpt lat="48.09094" lon="6.64102">
        <ele>720.8</ele>
        <time>2025-03-23T11:32:29Z</time>
      </trkpt>
      <trkpt lat="48.09094" lon="6.64102">
        <ele>720.8</ele>
        <time>2025-03-23T11:32:30Z</time>
      </trkpt>
      <trkpt lat="48.09094" lon="6.64102">
        <ele>720.8</ele>
        <time>2025-03-23T11:32:31Z</time>
      </trkpt>
      <trkpt lat="48.09094" lon="6.64105">
        <ele>720.9</ele>
        <time>2025-03-23T11:32:36Z</time>
      </trkpt>
      <trkpt lat="48.09094" lon="6.64107">
        <ele>720.9</ele>
        <time>2025-03-23T11:32:37Z</time>
      </trkpt>
      <trkpt lat="48.09095" lon="6.64113">
        <ele>720.9</ele>
        <time>2025-03-23T11:32:49Z</time>
      </trkpt>
      <trkpt lat="48.09095" lon="6.64113">
        <ele>720.9</ele>
        <time>2025-03-23T11:32:50Z</time>
      </trkpt>
      <trkpt lat="48.09095" lon="6.64113">
        <ele>720.9</ele>
        <time>2025-03-23T11:32:53Z</time>
      </trkpt>
      <trkpt lat="48.09095" lon="6.64113">
        <ele>720.9</ele>
        <time>2025-03-23T11:32:54Z</time>
      </trkpt>
      <trkpt lat="48.09095" lon="6.64113">
        <ele>720.9</ele>
        <time>2025-03-23T11:32:55Z</time>
      </trkpt>
      <trkpt lat="48.09095" lon="6.64114">
        <ele>720.9</ele>
        <time>2025-03-23T11:32:56Z</time>
      </trkpt>
      <trkpt lat="48.09094" lon="6.64113">
        <ele>720.9</ele>
        <time>2025-03-23T11:32:57Z</time>
      </trkpt>
      <trkpt lat="48.09094" lon="6.64113">
        <ele>720.9</ele>
        <time>2025-03-23T11:33:01Z</time>
      </trkpt>
      <trkpt lat="48.09094" lon="6.64113">
        <ele>720.9</ele>
        <time>2025-03-23T11:33:02Z</time>
      </trkpt>
      <trkpt lat="48.09094" lon="6.64113">
        <ele>720.9</ele>
        <time>2025-03-23T11:33:03Z</time>
      </trkpt>
      <trkpt lat="48.09094" lon="6.64113">
        <ele>720.9</ele>
        <time>2025-03-23T11:33:04Z</time>
      </trkpt>
      <trkpt lat="48.09094" lon="6.64114">
        <ele>720.9</ele>
        <time>2025-03-23T11:33:05Z</time>
      </trkpt>
      <trkpt lat="48.09094" lon="6.64114">
        <ele>720.9</ele>
        <time>2025-03-23T11:33:06Z</time>
      </trkpt>
      <trkpt lat="48.09094" lon="6.64115">
        <ele>720.9</ele>
        <time>2025-03-23T11:33:07Z</time>
      </trkpt>
      <trkpt lat="48.09095" lon="6.64116">
        <ele>721</ele>
        <time>2025-03-23T11:33:08Z</time>
      </trkpt>
      <trkpt lat="48.09095" lon="6.64116">
        <ele>721</ele>
        <time>2025-03-23T11:33:11Z</time>
      </trkpt>
      <trkpt lat="48.09095" lon="6.64116">
        <ele>721</ele>
        <time>2025-03-23T11:33:12Z</time>
      </trkpt>
      <trkpt lat="48.09095" lon="6.64116">
        <ele>721</ele>
        <time>2025-03-23T11:33:13Z</time>
      </trkpt>
      <trkpt lat="48.09095" lon="6.64116">
        <ele>721</ele>
        <time>2025-03-23T11:33:14Z</time>
      </trkpt>
      <trkpt lat="48.09094" lon="6.64116">
        <ele>720.9</ele>
        <time>2025-03-23T11:33:15Z</time>
      </trkpt>
      <trkpt lat="48.09093" lon="6.64116">
        <ele>720.9</ele>
        <time>2025-03-23T11:33:16Z</time>
      </trkpt>
      <trkpt lat="48.09083" lon="6.64113">
        <ele>720</ele>
        <time>2025-03-23T11:33:24Z</time>
      </trkpt>
      <trkpt lat="48.09074" lon="6.64113">
        <ele>719.2</ele>
        <time>2025-03-23T11:33:33Z</time>
      </trkpt>
      <trkpt lat="48.09065" lon="6.64106">
        <ele>718.3</ele>
        <time>2025-03-23T11:33:43Z</time>
      </trkpt>
      <trkpt lat="48.09056" lon="6.64104">
        <ele>717.1</ele>
        <time>2025-03-23T11:33:53Z</time>
      </trkpt>
      <trkpt lat="48.09047" lon="6.64108">
        <ele>715.9</ele>
        <time>2025-03-23T11:34:02Z</time>
      </trkpt>
      <trkpt lat="48.09038" lon="6.64112">
        <ele>714.7</ele>
        <time>2025-03-23T11:34:13Z</time>
      </trkpt>
      <trkpt lat="48.09028" lon="6.64114">
        <ele>713.4</ele>
        <time>2025-03-23T11:34:24Z</time>
      </trkpt>
      <trkpt lat="48.09019" lon="6.64116">
        <ele>712.1</ele>
        <time>2025-03-23T11:34:31Z</time>
      </trkpt>
      <trkpt lat="48.0901" lon="6.6412">
        <ele>710.8</ele>
        <time>2025-03-23T11:34:37Z</time>
      </trkpt>
      <trkpt lat="48.09001" lon="6.64121">
        <ele>709.4</ele>
        <time>2025-03-23T11:34:45Z</time>
      </trkpt>
      <trkpt lat="48.08992" lon="6.64127">
        <ele>707.9</ele>
        <time>2025-03-23T11:34:53Z</time>
      </trkpt>
      <trkpt lat="48.08984" lon="6.64133">
        <ele>706.5</ele>
        <time>2025-03-23T11:35:02Z</time>
      </trkpt>
      <trkpt lat="48.08974" lon="6.64133">
        <ele>705</ele>
        <time>2025-03-23T11:35:13Z</time>
      </trkpt>
      <trkpt lat="48.08965" lon="6.64135">
        <ele>703.5</ele>
        <time>2025-03-23T11:35:21Z</time>
      </trkpt>
      <trkpt lat="48.08956" lon="6.6414">
        <ele>702.1</ele>
        <time>2025-03-23T11:35:29Z</time>
      </trkpt>
      <trkpt lat="48.08947" lon="6.64145">
        <ele>700.7</ele>
        <time>2025-03-23T11:35:36Z</time>
      </trkpt>
      <trkpt lat="48.08938" lon="6.64141">
        <ele>699.4</ele>
        <time>2025-03-23T11:35:42Z</time>
      </trkpt>
      <trkpt lat="48.08934" lon="6.64128">
        <ele>699</ele>
        <time>2025-03-23T11:35:50Z</time>
      </trkpt>
      <trkpt lat="48.08932" lon="6.64115">
        <ele>697.9</ele>
        <time>2025-03-23T11:35:56Z</time>
      </trkpt>
      <trkpt lat="48.08932" lon="6.641">
        <ele>696.8</ele>
        <time>2025-03-23T11:36:05Z</time>
      </trkpt>
      <trkpt lat="48.08936" lon="6.64086">
        <ele>695.5</ele>
        <time>2025-03-23T11:36:14Z</time>
      </trkpt>
      <trkpt lat="48.08943" lon="6.64074">
        <ele>694.1</ele>
        <time>2025-03-23T11:36:22Z</time>
      </trkpt>
      <trkpt lat="48.08949" lon="6.64062">
        <ele>692.7</ele>
        <time>2025-03-23T11:36:30Z</time>
      </trkpt>
      <trkpt lat="48.0895" lon="6.64048">
        <ele>691.2</ele>
        <time>2025-03-23T11:36:40Z</time>
      </trkpt>
      <trkpt lat="48.08945" lon="6.64036">
        <ele>689.6</ele>
        <time>2025-03-23T11:36:57Z</time>
      </trkpt>
      <trkpt lat="48.08937" lon="6.6403">
        <ele>687.8</ele>
        <time>2025-03-23T11:37:09Z</time>
      </trkpt>
      <trkpt lat="48.0893" lon="6.6402">
        <ele>686</ele>
        <time>2025-03-23T11:37:17Z</time>
      </trkpt>
      <trkpt lat="48.08923" lon="6.6401">
        <ele>684.3</ele>
        <time>2025-03-23T11:37:25Z</time>
      </trkpt>
      <trkpt lat="48.08917" lon="6.63998">
        <ele>682.6</ele>
        <time>2025-03-23T11:37:33Z</time>
      </trkpt>
      <trkpt lat="48.08912" lon="6.63984">
        <ele>680.9</ele>
        <time>2025-03-23T11:37:40Z</time>
      </trkpt>
      <trkpt lat="48.08909" lon="6.63971">
        <ele>679.4</ele>
        <time>2025-03-23T11:37:49Z</time>
      </trkpt>
      <trkpt lat="48.08905" lon="6.63957">
        <ele>678</ele>
        <time>2025-03-23T11:37:58Z</time>
      </trkpt>
      <trkpt lat="48.08902" lon="6.63944">
        <ele>676.8</ele>
        <time>2025-03-23T11:38:07Z</time>
      </trkpt>
      <trkpt lat="48.08899" lon="6.63931">
        <ele>675.5</ele>
        <time>2025-03-23T11:38:15Z</time>
      </trkpt>
      <trkpt lat="48.08893" lon="6.63918">
        <ele>674.3</ele>
        <time>2025-03-23T11:38:24Z</time>
      </trkpt>
      <trkpt lat="48.08892" lon="6.63905">
        <ele>673.2</ele>
        <time>2025-03-23T11:38:32Z</time>
      </trkpt>
      <trkpt lat="48.08887" lon="6.63892">
        <ele>672</ele>
        <time>2025-03-23T11:38:41Z</time>
      </trkpt>
      <trkpt lat="48.08884" lon="6.63877">
        <ele>671</ele>
        <time>2025-03-23T11:38:47Z</time>
      </trkpt>
      <trkpt lat="48.0888" lon="6.63863">
        <ele>670.2</ele>
        <time>2025-03-23T11:38:55Z</time>
      </trkpt>
      <trkpt lat="48.08876" lon="6.6385">
        <ele>669.4</ele>
        <time>2025-03-23T11:39:02Z</time>
      </trkpt>
      <trkpt lat="48.08875" lon="6.63835">
        <ele>668.7</ele>
        <time>2025-03-23T11:39:10Z</time>
      </trkpt>
      <trkpt lat="48.08872" lon="6.63821">
        <ele>668</ele>
        <time>2025-03-23T11:39:18Z</time>
      </trkpt>
      <trkpt lat="48.08869" lon="6.63808">
        <ele>667.3</ele>
        <time>2025-03-23T11:39:26Z</time>
      </trkpt>
      <trkpt lat="48.08864" lon="6.63795">
        <ele>666.7</ele>
        <time>2025-03-23T11:39:34Z</time>
      </trkpt>
      <trkpt lat="48.0886" lon="6.63782">
        <ele>666.1</ele>
        <time>2025-03-23T11:39:45Z</time>
      </trkpt>
      <trkpt lat="48.08853" lon="6.63772">
        <ele>665.4</ele>
        <time>2025-03-23T11:39:54Z</time>
      </trkpt>
      <trkpt lat="48.08849" lon="6.63759">
        <ele>664.6</ele>
        <time>2025-03-23T11:40:04Z</time>
      </trkpt>
      <trkpt lat="48.08845" lon="6.63747">
        <ele>663.8</ele>
        <time>2025-03-23T11:40:12Z</time>
      </trkpt>
      <trkpt lat="48.08841" lon="6.63734">
        <ele>662.8</ele>
        <time>2025-03-23T11:40:18Z</time>
      </trkpt>
      <trkpt lat="48.08838" lon="6.6372">
        <ele>661.6</ele>
        <time>2025-03-23T11:40:28Z</time>
      </trkpt>
      <trkpt lat="48.08839" lon="6.63706">
        <ele>660.5</ele>
        <time>2025-03-23T11:40:36Z</time>
      </trkpt>
      <trkpt lat="48.0884" lon="6.63693">
        <ele>659.3</ele>
        <time>2025-03-23T11:40:43Z</time>
      </trkpt>
      <trkpt lat="48.08839" lon="6.63678">
        <ele>658</ele>
        <time>2025-03-23T11:40:52Z</time>
      </trkpt>
      <trkpt lat="48.0884" lon="6.63662">
        <ele>656.5</ele>
        <time>2025-03-23T11:40:59Z</time>
      </trkpt>
      <trkpt lat="48.08836" lon="6.63649">
        <ele>655.2</ele>
        <time>2025-03-23T11:41:07Z</time>
      </trkpt>
      <trkpt lat="48.08833" lon="6.63635">
        <ele>653.8</ele>
        <time>2025-03-23T11:41:16Z</time>
      </trkpt>
      <trkpt lat="48.08833" lon="6.63621">
        <ele>652.6</ele>
        <time>2025-03-23T11:41:23Z</time>
      </trkpt>
      <trkpt lat="48.08831" lon="6.63608">
        <ele>651.3</ele>
        <time>2025-03-23T11:41:32Z</time>
      </trkpt>
      <trkpt lat="48.08833" lon="6.63594">
        <ele>650</ele>
        <time>2025-03-23T11:41:43Z</time>
      </trkpt>
      <trkpt lat="48.08832" lon="6.63579">
        <ele>648.6</ele>
        <time>2025-03-23T11:41:52Z</time>
      </trkpt>
      <trkpt lat="48.08834" lon="6.63564">
        <ele>647.3</ele>
        <time>2025-03-23T11:42:00Z</time>
      </trkpt>
      <trkpt lat="48.08839" lon="6.63551">
        <ele>645.9</ele>
        <time>2025-03-23T11:42:06Z</time>
      </trkpt>
      <trkpt lat="48.08838" lon="6.63537">
        <ele>644.5</ele>
        <time>2025-03-23T11:42:16Z</time>
      </trkpt>
      <trkpt lat="48.08839" lon="6.63523">
        <ele>642.9</ele>
        <time>2025-03-23T11:42:26Z</time>
      </trkpt>
      <trkpt lat="48.08842" lon="6.63509">
        <ele>641.3</ele>
        <time>2025-03-23T11:42:32Z</time>
      </trkpt>
      <trkpt lat="48.08843" lon="6.63494">
        <ele>639.7</ele>
        <time>2025-03-23T11:42:41Z</time>
      </trkpt>
      <trkpt lat="48.08843" lon="6.6348">
        <ele>638.2</ele>
        <time>2025-03-23T11:42:51Z</time>
      </trkpt>
      <trkpt lat="48.08848" lon="6.63466">
        <ele>636.8</ele>
        <time>2025-03-23T11:43:00Z</time>
      </trkpt>
      <trkpt lat="48.08852" lon="6.63452">
        <ele>635.3</ele>
        <time>2025-03-23T11:43:08Z</time>
      </trkpt>
      <trkpt lat="48.08853" lon="6.63437">
        <ele>633.7</ele>
        <time>2025-03-23T11:43:16Z</time>
      </trkpt>
      <trkpt lat="48.08859" lon="6.63425">
        <ele>632.1</ele>
        <time>2025-03-23T11:43:24Z</time>
      </trkpt>
      <trkpt lat="48.08861" lon="6.63411">
        <ele>630.5</ele>
        <time>2025-03-23T11:43:34Z</time>
      </trkpt>
      <trkpt lat="48.08861" lon="6.63397">
        <ele>628.9</ele>
        <time>2025-03-23T11:43:45Z</time>
      </trkpt>
      <trkpt lat="48.08861" lon="6.63384">
        <ele>627.4</ele>
        <time>2025-03-23T11:43:54Z</time>
      </trkpt>
      <trkpt lat="48.08856" lon="6.63371">
        <ele>625.8</ele>
        <time>2025-03-23T11:44:03Z</time>
      </trkpt>
      <trkpt lat="48.08857" lon="6.63356">
        <ele>624.3</ele>
        <time>2025-03-23T11:44:12Z</time>
      </trkpt>
      <trkpt lat="48.08863" lon="6.63345">
        <ele>622.9</ele>
        <time>2025-03-23T11:44:18Z</time>
      </trkpt>
      <trkpt lat="48.08873" lon="6.63344">
        <ele>621.8</ele>
        <time>2025-03-23T11:44:23Z</time>
      </trkpt>
      <trkpt lat="48.08873" lon="6.63345">
        <ele>621.7</ele>
        <time>2025-03-23T11:44:27Z</time>
      </trkpt>
      <trkpt lat="48.08873" lon="6.63345">
        <ele>621.7</ele>
        <time>2025-03-23T11:44:28Z</time>
      </trkpt>
      <trkpt lat="48.08874" lon="6.63345">
        <ele>621.6</ele>
        <time>2025-03-23T11:44:34Z</time>
      </trkpt>
      <trkpt lat="48.08874" lon="6.63345">
        <ele>621.6</ele>
        <time>2025-03-23T11:44:35Z</time>
      </trkpt>
      <trkpt lat="48.08874" lon="6.63345">
        <ele>621.6</ele>
        <time>2025-03-23T11:44:36Z</time>
      </trkpt>
      <trkpt lat="48.08874" lon="6.63345">
        <ele>621.6</ele>
        <time>2025-03-23T11:44:37Z</time>
      </trkpt>
      <trkpt lat="48.08874" lon="6.63345">
        <ele>621.6</ele>
        <time>2025-03-23T11:44:38Z</time>
      </trkpt>
      <trkpt lat="48.08875" lon="6.63343">
        <ele>621.4</ele>
        <time>2025-03-23T11:44:58Z</time>
      </trkpt>
      <trkpt lat="48.08876" lon="6.63342">
        <ele>621.3</ele>
        <time>2025-03-23T11:44:59Z</time>
      </trkpt>
      <trkpt lat="48.08876" lon="6.6334">
        <ele>621.1</ele>
        <time>2025-03-23T11:45:00Z</time>
      </trkpt>
      <trkpt lat="48.08883" lon="6.63329">
        <ele>620</ele>
        <time>2025-03-23T11:45:09Z</time>
      </trkpt>
      <trkpt lat="48.08888" lon="6.63318">
        <ele>618.8</ele>
        <time>2025-03-23T11:45:17Z</time>
      </trkpt>
      <trkpt lat="48.08894" lon="6.63307">
        <ele>617.6</ele>
        <time>2025-03-23T11:45:27Z</time>
      </trkpt>
      <trkpt lat="48.08899" lon="6.63296">
        <ele>616.4</ele>
        <time>2025-03-23T11:45:36Z</time>
      </trkpt>
      <trkpt lat="48.08892" lon="6.63285">
        <ele>615.1</ele>
        <time>2025-03-23T11:45:50Z</time>
      </trkpt>
      <trkpt lat="48.08891" lon="6.63271">
        <ele>613.8</ele>
        <time>2025-03-23T11:46:01Z</time>
      </trkpt>
      <trkpt lat="48.08884" lon="6.63261">
        <ele>612.4</ele>
        <time>2025-03-23T11:46:13Z</time>
      </trkpt>
      <trkpt lat="48.08881" lon="6.63246">
        <ele>611</ele>
        <time>2025-03-23T11:46:22Z</time>
      </trkpt>
      <trkpt lat="48.08875" lon="6.63234">
        <ele>609.5</ele>
        <time>2025-03-23T11:46:31Z</time>
      </trkpt>
      <trkpt lat="48.08871" lon="6.63222">
        <ele>608</ele>
        <time>2025-03-23T11:46:39Z</time>
      </trkpt>
      <trkpt lat="48.08867" lon="6.63209">
        <ele>606.5</ele>
        <time>2025-03-23T11:46:52Z</time>
      </trkpt>
      <trkpt lat="48.08864" lon="6.63196">
        <ele>605.1</ele>
        <time>2025-03-23T11:47:00Z</time>
      </trkpt>
      <trkpt lat="48.08858" lon="6.63185">
        <ele>603.8</ele>
        <time>2025-03-23T11:47:07Z</time>
      </trkpt>
      <trkpt lat="48.08854" lon="6.63172">
        <ele>602.6</ele>
        <time>2025-03-23T11:47:17Z</time>
      </trkpt>
      <trkpt lat="48.0885" lon="6.63159">
        <ele>601.4</ele>
        <time>2025-03-23T11:47:29Z</time>
      </trkpt>
      <trkpt lat="48.08844" lon="6.63147">
        <ele>600.1</ele>
        <time>2025-03-23T11:47:36Z</time>
      </trkpt>
      <trkpt lat="48.08836" lon="6.63138">
        <ele>599</ele>
        <time>2025-03-23T11:47:44Z</time>
      </trkpt>
      <trkpt lat="48.08829" lon="6.63129">
        <ele>598</ele>
        <time>2025-03-23T11:47:52Z</time>
      </trkpt>
      <trkpt lat="48.08823" lon="6.63119">
        <ele>597</ele>
        <time>2025-03-23T11:48:00Z</time>
      </trkpt>
      <trkpt lat="48.08814" lon="6.63111">
        <ele>596</ele>
        <time>2025-03-23T11:48:10Z</time>
      </trkpt>
      <trkpt lat="48.08808" lon="6.63101">
        <ele>593.8</ele>
        <time>2025-03-23T11:48:37Z</time>
      </trkpt>
      <trkpt lat="48.08798" lon="6.63101">
        <ele>591.8</ele>
        <time>2025-03-23T11:48:46Z</time>
      </trkpt>
      <trkpt lat="48.08788" lon="6.631">
        <ele>590.2</ele>
        <time>2025-03-23T11:48:56Z</time>
      </trkpt>
      <trkpt lat="48.0878" lon="6.63093">
        <ele>588.4</ele>
        <time>2025-03-23T11:49:07Z</time>
      </trkpt>
      <trkpt lat="48.08771" lon="6.6309">
        <ele>586.7</ele>
        <time>2025-03-23T11:49:15Z</time>
      </trkpt>
      <trkpt lat="48.08762" lon="6.63086">
        <ele>585.1</ele>
        <time>2025-03-23T11:49:22Z</time>
      </trkpt>
      <trkpt lat="48.08761" lon="6.63081">
        <ele>584.5</ele>
        <time>2025-03-23T11:49:28Z</time>
      </trkpt>
      <trkpt lat="48.08761" lon="6.6308">
        <ele>584.4</ele>
        <time>2025-03-23T11:49:29Z</time>
      </trkpt>
      <trkpt lat="48.0876" lon="6.6308">
        <ele>584.2</ele>
        <time>2025-03-23T11:49:30Z</time>
      </trkpt>
      <trkpt lat="48.08759" lon="6.63079">
        <ele>584.1</ele>
        <time>2025-03-23T11:49:31Z</time>
      </trkpt>
      <trkpt lat="48.08758" lon="6.63079">
        <ele>584</ele>
        <time>2025-03-23T11:49:32Z</time>
      </trkpt>
      <trkpt lat="48.08758" lon="6.63078">
        <ele>583.9</ele>
        <time>2025-03-23T11:49:33Z</time>
      </trkpt>
      <trkpt lat="48.08756" lon="6.63065">
        <ele>582.5</ele>
        <time>2025-03-23T11:49:41Z</time>
      </trkpt>
      <trkpt lat="48.08755" lon="6.6305">
        <ele>581.2</ele>
        <time>2025-03-23T11:49:50Z</time>
      </trkpt>
      <trkpt lat="48.08752" lon="6.63036">
        <ele>580</ele>
        <time>2025-03-23T11:49:58Z</time>
      </trkpt>
      <trkpt lat="48.08751" lon="6.63023">
        <ele>578.8</ele>
        <time>2025-03-23T11:50:05Z</time>
      </trkpt>
      <trkpt lat="48.08749" lon="6.63009">
        <ele>577.6</ele>
        <time>2025-03-23T11:50:13Z</time>
      </trkpt>
      <trkpt lat="48.08749" lon="6.62994">
        <ele>576.3</ele>
        <time>2025-03-23T11:50:21Z</time>
      </trkpt>
      <trkpt lat="48.08748" lon="6.62981">
        <ele>575.2</ele>
        <time>2025-03-23T11:50:29Z</time>
      </trkpt>
      <trkpt lat="48.08748" lon="6.62967">
        <ele>574</ele>
        <time>2025-03-23T11:50:37Z</time>
      </trkpt>
      <trkpt lat="48.08748" lon="6.62953">
        <ele>572.7</ele>
        <time>2025-03-23T11:50:46Z</time>
      </trkpt>
      <trkpt lat="48.08748" lon="6.62952">
        <ele>572.6</ele>
        <time>2025-03-23T11:50:51Z</time>
      </trkpt>
      <trkpt lat="48.08748" lon="6.62952">
        <ele>572.6</ele>
        <time>2025-03-23T11:50:52Z</time>
      </trkpt>
      <trkpt lat="48.08748" lon="6.62952">
        <ele>572.6</ele>
        <time>2025-03-23T11:50:58Z</time>
      </trkpt>
      <trkpt lat="48.08748" lon="6.62951">
        <ele>572.6</ele>
        <time>2025-03-23T11:50:59Z</time>
      </trkpt>
      <trkpt lat="48.08748" lon="6.62951">
        <ele>572.5</ele>
        <time>2025-03-23T11:51:00Z</time>
      </trkpt>
      <trkpt lat="48.08748" lon="6.6295">
        <ele>572.4</ele>
        <time>2025-03-23T11:51:04Z</time>
      </trkpt>
      <trkpt lat="48.08748" lon="6.6295">
        <ele>572.4</ele>
        <time>2025-03-23T11:51:05Z</time>
      </trkpt>
      <trkpt lat="48.08748" lon="6.6295">
        <ele>572.4</ele>
        <time>2025-03-23T11:51:06Z</time>
      </trkpt>
      <trkpt lat="48.08748" lon="6.6295">
        <ele>572.4</ele>
        <time>2025-03-23T11:51:07Z</time>
      </trkpt>
      <trkpt lat="48.08748" lon="6.6295">
        <ele>572.3</ele>
        <time>2025-03-23T11:51:08Z</time>
      </trkpt>
      <trkpt lat="48.08748" lon="6.6295">
        <ele>572.3</ele>
        <time>2025-03-23T11:51:12Z</time>
      </trkpt>
      <trkpt lat="48.08748" lon="6.62949">
        <ele>572.3</ele>
        <time>2025-03-23T11:51:13Z</time>
      </trkpt>
      <trkpt lat="48.08748" lon="6.62948">
        <ele>572.2</ele>
        <time>2025-03-23T11:51:14Z</time>
      </trkpt>
      <trkpt lat="48.08748" lon="6.62947">
        <ele>572.1</ele>
        <time>2025-03-23T11:51:15Z</time>
      </trkpt>
      <trkpt lat="48.08752" lon="6.62936">
        <ele>571</ele>
        <time>2025-03-23T11:51:32Z</time>
      </trkpt>
      <trkpt lat="48.08752" lon="6.62936">
        <ele>571</ele>
        <time>2025-03-23T11:51:33Z</time>
      </trkpt>
      <trkpt lat="48.08752" lon="6.62934">
        <ele>570.8</ele>
        <time>2025-03-23T11:51:52Z</time>
      </trkpt>
      <trkpt lat="48.08752" lon="6.62934">
        <ele>570.8</ele>
        <time>2025-03-23T11:51:53Z</time>
      </trkpt>
      <trkpt lat="48.08752" lon="6.62934">
        <ele>570.8</ele>
        <time>2025-03-23T11:52:02Z</time>
      </trkpt>
      <trkpt lat="48.08752" lon="6.62934">
        <ele>570.8</ele>
        <time>2025-03-23T11:52:03Z</time>
      </trkpt>
      <trkpt lat="48.08752" lon="6.62934">
        <ele>570.8</ele>
        <time>2025-03-23T11:53:52Z</time>
      </trkpt>
      <trkpt lat="48.08752" lon="6.62935">
        <ele>570.8</ele>
        <time>2025-03-23T11:53:53Z</time>
      </trkpt>
      <trkpt lat="48.08751" lon="6.62934">
        <ele>570.7</ele>
        <time>2025-03-23T11:54:09Z</time>
      </trkpt>
      <trkpt lat="48.08751" lon="6.62934">
        <ele>570.7</ele>
        <time>2025-03-23T11:54:10Z</time>
      </trkpt>
      <trkpt lat="48.08751" lon="6.62934">
        <ele>570.7</ele>
        <time>2025-03-23T11:54:11Z</time>
      </trkpt>
      <trkpt lat="48.08751" lon="6.62934">
        <ele>570.7</ele>
        <time>2025-03-23T11:54:44Z</time>
      </trkpt>
      <trkpt lat="48.08751" lon="6.62934">
        <ele>570.7</ele>
        <time>2025-03-23T11:54:45Z</time>
      </trkpt>
      <trkpt lat="48.08751" lon="6.62934">
        <ele>570.7</ele>
        <time>2025-03-23T11:54:46Z</time>
      </trkpt>
      <trkpt lat="48.08742" lon="6.62929">
        <ele>569.9</ele>
        <time>2025-03-23T11:55:00Z</time>
      </trkpt>
      <trkpt lat="48.08734" lon="6.6292">
        <ele>569.7</ele>
        <time>2025-03-23T11:55:09Z</time>
      </trkpt>
      <trkpt lat="48.08728" lon="6.62909">
        <ele>569.5</ele>
        <time>2025-03-23T11:55:18Z</time>
      </trkpt>
      <trkpt lat="48.08727" lon="6.62904">
        <ele>569.4</ele>
        <time>2025-03-23T11:55:34Z</time>
      </trkpt>
      <trkpt lat="48.08727" lon="6.62904">
        <ele>569.4</ele>
        <time>2025-03-23T11:55:35Z</time>
      </trkpt>
      <trkpt lat="48.08729" lon="6.629">
        <ele>569.4</ele>
        <time>2025-03-23T12:31:42Z</time>
      </trkpt>
      <trkpt lat="48.08729" lon="6.629">
        <ele>569.3</ele>
        <time>2025-03-23T12:31:43Z</time>
      </trkpt>
      <trkpt lat="48.08729" lon="6.629">
        <ele>569.3</ele>
        <time>2025-03-23T12:31:57Z</time>
      </trkpt>
      <trkpt lat="48.08729" lon="6.629">
        <ele>569.3</ele>
        <time>2025-03-23T12:31:58Z</time>
      </trkpt>
      <trkpt lat="48.0873" lon="6.62904">
        <ele>569.3</ele>
        <time>2025-03-23T12:32:04Z</time>
      </trkpt>
      <trkpt lat="48.08731" lon="6.62905">
        <ele>569.3</ele>
        <time>2025-03-23T12:32:05Z</time>
      </trkpt>
      <trkpt lat="48.08736" lon="6.62917">
        <ele>569.1</ele>
        <time>2025-03-23T12:32:14Z</time>
      </trkpt>
      <trkpt lat="48.08741" lon="6.62928">
        <ele>569.9</ele>
        <time>2025-03-23T12:32:23Z</time>
      </trkpt>
      <trkpt lat="48.08748" lon="6.62936">
        <ele>570.7</ele>
        <time>2025-03-23T12:32:32Z</time>
      </trkpt>
      <trkpt lat="48.08756" lon="6.62944">
        <ele>571.6</ele>
        <time>2025-03-23T12:32:40Z</time>
      </trkpt>
      <trkpt lat="48.08765" lon="6.62947">
        <ele>572.5</ele>
        <time>2025-03-23T12:32:49Z</time>
      </trkpt>
      <trkpt lat="48.08775" lon="6.62946">
        <ele>573.4</ele>
        <time>2025-03-23T12:32:58Z</time>
      </trkpt>
      <trkpt lat="48.08785" lon="6.62943">
        <ele>574.1</ele>
        <time>2025-03-23T12:33:06Z</time>
      </trkpt>
      <trkpt lat="48.08793" lon="6.62938">
        <ele>574.8</ele>
        <time>2025-03-23T12:33:14Z</time>
      </trkpt>
      <trkpt lat="48.08802" lon="6.62932">
        <ele>575.5</ele>
        <time>2025-03-23T12:33:25Z</time>
      </trkpt>
      <trkpt lat="48.08811" lon="6.62925">
        <ele>576.2</ele>
        <time>2025-03-23T12:33:33Z</time>
      </trkpt>
      <trkpt lat="48.08818" lon="6.62916">
        <ele>577</ele>
        <time>2025-03-23T12:33:41Z</time>
      </trkpt>
      <trkpt lat="48.08825" lon="6.62908">
        <ele>577.7</ele>
        <time>2025-03-23T12:33:49Z</time>
      </trkpt>
      <trkpt lat="48.08834" lon="6.62902">
        <ele>578.4</ele>
        <time>2025-03-23T12:33:57Z</time>
      </trkpt>
      <trkpt lat="48.08844" lon="6.62898">
        <ele>579.2</ele>
        <time>2025-03-23T12:34:05Z</time>
      </trkpt>
      <trkpt lat="48.08853" lon="6.62895">
        <ele>579.9</ele>
        <time>2025-03-23T12:34:13Z</time>
      </trkpt>
      <trkpt lat="48.08863" lon="6.62894">
        <ele>580.6</ele>
        <time>2025-03-23T12:34:21Z</time>
      </trkpt>
      <trkpt lat="48.08872" lon="6.62893">
        <ele>581.3</ele>
        <time>2025-03-23T12:34:30Z</time>
      </trkpt>
      <trkpt lat="48.08881" lon="6.62891">
        <ele>581.9</ele>
        <time>2025-03-23T12:34:37Z</time>
      </trkpt>
      <trkpt lat="48.0889" lon="6.62886">
        <ele>582.6</ele>
        <time>2025-03-23T12:34:45Z</time>
      </trkpt>
      <trkpt lat="48.08898" lon="6.62879">
        <ele>583.1</ele>
        <time>2025-03-23T12:34:53Z</time>
      </trkpt>
      <trkpt lat="48.08907" lon="6.62874">
        <ele>583.7</ele>
        <time>2025-03-23T12:35:01Z</time>
      </trkpt>
      <trkpt lat="48.08915" lon="6.62868">
        <ele>584.3</ele>
        <time>2025-03-23T12:35:08Z</time>
      </trkpt>
      <trkpt lat="48.08924" lon="6.6286">
        <ele>585</ele>
        <time>2025-03-23T12:35:16Z</time>
      </trkpt>
      <trkpt lat="48.08933" lon="6.62858">
        <ele>585.6</ele>
        <time>2025-03-23T12:35:23Z</time>
      </trkpt>
      <trkpt lat="48.08941" lon="6.62853">
        <ele>586.1</ele>
        <time>2025-03-23T12:35:31Z</time>
      </trkpt>
      <trkpt lat="48.0895" lon="6.62849">
        <ele>586.7</ele>
        <time>2025-03-23T12:35:38Z</time>
      </trkpt>
      <trkpt lat="48.08959" lon="6.62848">
        <ele>587.3</ele>
        <time>2025-03-23T12:35:45Z</time>
      </trkpt>
      <trkpt lat="48.08968" lon="6.62847">
        <ele>587.9</ele>
        <time>2025-03-23T12:35:52Z</time>
      </trkpt>
      <trkpt lat="48.08977" lon="6.62843">
        <ele>588.5</ele>
        <time>2025-03-23T12:36:00Z</time>
      </trkpt>
      <trkpt lat="48.08985" lon="6.62837">
        <ele>589.1</ele>
        <time>2025-03-23T12:36:08Z</time>
      </trkpt>
      <trkpt lat="48.08994" lon="6.62832">
        <ele>589.7</ele>
        <time>2025-03-23T12:36:16Z</time>
      </trkpt>
      <trkpt lat="48.09004" lon="6.62827">
        <ele>590.3</ele>
        <time>2025-03-23T12:36:25Z</time>
      </trkpt>
      <trkpt lat="48.09012" lon="6.62819">
        <ele>590.9</ele>
        <time>2025-03-23T12:36:33Z</time>
      </trkpt>
      <trkpt lat="48.09021" lon="6.62815">
        <ele>591.5</ele>
        <time>2025-03-23T12:36:40Z</time>
      </trkpt>
      <trkpt lat="48.09029" lon="6.62808">
        <ele>592.2</ele>
        <time>2025-03-23T12:36:48Z</time>
      </trkpt>
      <trkpt lat="48.09037" lon="6.62802">
        <ele>592.8</ele>
        <time>2025-03-23T12:36:57Z</time>
      </trkpt>
      <trkpt lat="48.09046" lon="6.62797">
        <ele>593.5</ele>
        <time>2025-03-23T12:37:04Z</time>
      </trkpt>
      <trkpt lat="48.09054" lon="6.62788">
        <ele>594.2</ele>
        <time>2025-03-23T12:37:12Z</time>
      </trkpt>
      <trkpt lat="48.09062" lon="6.62779">
        <ele>595</ele>
        <time>2025-03-23T12:37:20Z</time>
      </trkpt>
      <trkpt lat="48.09069" lon="6.62768">
        <ele>595.8</ele>
        <time>2025-03-23T12:37:30Z</time>
      </trkpt>
      <trkpt lat="48.09078" lon="6.62762">
        <ele>596.6</ele>
        <time>2025-03-23T12:37:39Z</time>
      </trkpt>
      <trkpt lat="48.09087" lon="6.62755">
        <ele>597.4</ele>
        <time>2025-03-23T12:37:48Z</time>
      </trkpt>
      <trkpt lat="48.09094" lon="6.62746">
        <ele>598.2</ele>
        <time>2025-03-23T12:37:56Z</time>
      </trkpt>
      <trkpt lat="48.09104" lon="6.62742">
        <ele>599</ele>
        <time>2025-03-23T12:38:05Z</time>
      </trkpt>
      <trkpt lat="48.09113" lon="6.62737">
        <ele>599.8</ele>
        <time>2025-03-23T12:38:13Z</time>
      </trkpt>
      <trkpt lat="48.09122" lon="6.62734">
        <ele>600.4</ele>
        <time>2025-03-23T12:38:20Z</time>
      </trkpt>
      <trkpt lat="48.09131" lon="6.62732">
        <ele>601.1</ele>
        <time>2025-03-23T12:38:27Z</time>
      </trkpt>
      <trkpt lat="48.09141" lon="6.62731">
        <ele>601.7</ele>
        <time>2025-03-23T12:38:38Z</time>
      </trkpt>
      <trkpt lat="48.09151" lon="6.6273">
        <ele>602.4</ele>
        <time>2025-03-23T12:38:45Z</time>
      </trkpt>
      <trkpt lat="48.0916" lon="6.62729">
        <ele>603</ele>
        <time>2025-03-23T12:38:52Z</time>
      </trkpt>
      <trkpt lat="48.0917" lon="6.62731">
        <ele>603.7</ele>
        <time>2025-03-23T12:38:59Z</time>
      </trkpt>
      <trkpt lat="48.09179" lon="6.62732">
        <ele>604.5</ele>
        <time>2025-03-23T12:39:07Z</time>
      </trkpt>
      <trkpt lat="48.09189" lon="6.62735">
        <ele>605.4</ele>
        <time>2025-03-23T12:39:15Z</time>
      </trkpt>
      <trkpt lat="48.09198" lon="6.62737">
        <ele>606.3</ele>
        <time>2025-03-23T12:39:24Z</time>
      </trkpt>
      <trkpt lat="48.09208" lon="6.6274">
        <ele>607.1</ele>
        <time>2025-03-23T12:39:32Z</time>
      </trkpt>
      <trkpt lat="48.09218" lon="6.62742">
        <ele>608.2</ele>
        <time>2025-03-23T12:39:41Z</time>
      </trkpt>
      <trkpt lat="48.09228" lon="6.62746">
        <ele>609.2</ele>
        <time>2025-03-23T12:39:49Z</time>
      </trkpt>
      <trkpt lat="48.09237" lon="6.62749">
        <ele>610.2</ele>
        <time>2025-03-23T12:39:56Z</time>
      </trkpt>
      <trkpt lat="48.09246" lon="6.62753">
        <ele>611.2</ele>
        <time>2025-03-23T12:40:04Z</time>
      </trkpt>
      <trkpt lat="48.09255" lon="6.62757">
        <ele>612.3</ele>
        <time>2025-03-23T12:40:14Z</time>
      </trkpt>
      <trkpt lat="48.09263" lon="6.62766">
        <ele>613.4</ele>
        <time>2025-03-23T12:40:21Z</time>
      </trkpt>
      <trkpt lat="48.09271" lon="6.62774">
        <ele>614.4</ele>
        <time>2025-03-23T12:40:30Z</time>
      </trkpt>
      <trkpt lat="48.09279" lon="6.62784">
        <ele>615.5</ele>
        <time>2025-03-23T12:40:37Z</time>
      </trkpt>
      <trkpt lat="48.09287" lon="6.62792">
        <ele>616.5</ele>
        <time>2025-03-23T12:40:45Z</time>
      </trkpt>
      <trkpt lat="48.09296" lon="6.62796">
        <ele>617.6</ele>
        <time>2025-03-23T12:40:55Z</time>
      </trkpt>
      <trkpt lat="48.09305" lon="6.62804">
        <ele>618.7</ele>
        <time>2025-03-23T12:41:04Z</time>
      </trkpt>
      <trkpt lat="48.09314" lon="6.62811">
        <ele>619.8</ele>
        <time>2025-03-23T12:41:13Z</time>
      </trkpt>
      <trkpt lat="48.09322" lon="6.62819">
        <ele>620.9</ele>
        <time>2025-03-23T12:41:21Z</time>
      </trkpt>
      <trkpt lat="48.09331" lon="6.62826">
        <ele>622</ele>
        <time>2025-03-23T12:41:29Z</time>
      </trkpt>
      <trkpt lat="48.09339" lon="6.62832">
        <ele>623.1</ele>
        <time>2025-03-23T12:41:39Z</time>
      </trkpt>
      <trkpt lat="48.09347" lon="6.62841">
        <ele>624.2</ele>
        <time>2025-03-23T12:41:49Z</time>
      </trkpt>
      <trkpt lat="48.09353" lon="6.62851">
        <ele>625.3</ele>
        <time>2025-03-23T12:41:57Z</time>
      </trkpt>
      <trkpt lat="48.0936" lon="6.62859">
        <ele>626.3</ele>
        <time>2025-03-23T12:42:04Z</time>
      </trkpt>
      <trkpt lat="48.09367" lon="6.62869">
        <ele>627.3</ele>
        <time>2025-03-23T12:42:11Z</time>
      </trkpt>
      <trkpt lat="48.09374" lon="6.62877">
        <ele>628.3</ele>
        <time>2025-03-23T12:42:18Z</time>
      </trkpt>
      <trkpt lat="48.09382" lon="6.62885">
        <ele>629.4</ele>
        <time>2025-03-23T12:42:26Z</time>
      </trkpt>
      <trkpt lat="48.09388" lon="6.62896">
        <ele>630.4</ele>
        <time>2025-03-23T12:42:33Z</time>
      </trkpt>
      <trkpt lat="48.09395" lon="6.62907">
        <ele>631.5</ele>
        <time>2025-03-23T12:42:42Z</time>
      </trkpt>
      <trkpt lat="48.09401" lon="6.62918">
        <ele>632.5</ele>
        <time>2025-03-23T12:42:49Z</time>
      </trkpt>
      <trkpt lat="48.09408" lon="6.62928">
        <ele>633.7</ele>
        <time>2025-03-23T12:42:57Z</time>
      </trkpt>
      <trkpt lat="48.09415" lon="6.62939">
        <ele>634.8</ele>
        <time>2025-03-23T12:43:07Z</time>
      </trkpt>
      <trkpt lat="48.09421" lon="6.62951">
        <ele>636</ele>
        <time>2025-03-23T12:43:16Z</time>
      </trkpt>
      <trkpt lat="48.09425" lon="6.62964">
        <ele>637.1</ele>
        <time>2025-03-23T12:43:23Z</time>
      </trkpt>
      <trkpt lat="48.09431" lon="6.62974">
        <ele>638.1</ele>
        <time>2025-03-23T12:43:30Z</time>
      </trkpt>
      <trkpt lat="48.09436" lon="6.62987">
        <ele>639.2</ele>
        <time>2025-03-23T12:43:39Z</time>
      </trkpt>
      <trkpt lat="48.09442" lon="6.63001">
        <ele>640.5</ele>
        <time>2025-03-23T12:43:48Z</time>
      </trkpt>
      <trkpt lat="48.09447" lon="6.63014">
        <ele>641.7</ele>
        <time>2025-03-23T12:43:56Z</time>
      </trkpt>
      <trkpt lat="48.0945" lon="6.63027">
        <ele>642.8</ele>
        <time>2025-03-23T12:44:04Z</time>
      </trkpt>
      <trkpt lat="48.09451" lon="6.63042">
        <ele>643.9</ele>
        <time>2025-03-23T12:44:14Z</time>
      </trkpt>
      <trkpt lat="48.09453" lon="6.63056">
        <ele>645</ele>
        <time>2025-03-23T12:44:22Z</time>
      </trkpt>
      <trkpt lat="48.09455" lon="6.63071">
        <ele>646.1</ele>
        <time>2025-03-23T12:44:31Z</time>
      </trkpt>
      <trkpt lat="48.09452" lon="6.63085">
        <ele>647.1</ele>
        <time>2025-03-23T12:44:40Z</time>
      </trkpt>
      <trkpt lat="48.09451" lon="6.631">
        <ele>648</ele>
        <time>2025-03-23T12:44:50Z</time>
      </trkpt>
      <trkpt lat="48.09449" lon="6.63114">
        <ele>648.9</ele>
        <time>2025-03-23T12:45:01Z</time>
      </trkpt>
      <trkpt lat="48.09445" lon="6.63127">
        <ele>649.8</ele>
        <time>2025-03-23T12:45:10Z</time>
      </trkpt>
      <trkpt lat="48.09443" lon="6.63141">
        <ele>650.8</ele>
        <time>2025-03-23T12:45:18Z</time>
      </trkpt>
      <trkpt lat="48.09441" lon="6.63154">
        <ele>651.8</ele>
        <time>2025-03-23T12:45:25Z</time>
      </trkpt>
      <trkpt lat="48.09441" lon="6.63169">
        <ele>652.9</ele>
        <time>2025-03-23T12:45:33Z</time>
      </trkpt>
      <trkpt lat="48.0944" lon="6.63184">
        <ele>654.1</ele>
        <time>2025-03-23T12:45:42Z</time>
      </trkpt>
      <trkpt lat="48.0944" lon="6.632">
        <ele>655.4</ele>
        <time>2025-03-23T12:45:50Z</time>
      </trkpt>
      <trkpt lat="48.09436" lon="6.63213">
        <ele>656.6</ele>
        <time>2025-03-23T12:45:58Z</time>
      </trkpt>
      <trkpt lat="48.09435" lon="6.63227">
        <ele>657.7</ele>
        <time>2025-03-23T12:46:06Z</time>
      </trkpt>
      <trkpt lat="48.09434" lon="6.63241">
        <ele>658.8</ele>
        <time>2025-03-23T12:46:17Z</time>
      </trkpt>
      <trkpt lat="48.0943" lon="6.63255">
        <ele>659.9</ele>
        <time>2025-03-23T12:46:26Z</time>
      </trkpt>
      <trkpt lat="48.09433" lon="6.63269">
        <ele>660.9</ele>
        <time>2025-03-23T12:46:34Z</time>
      </trkpt>
      <trkpt lat="48.09436" lon="6.63281">
        <ele>662</ele>
        <time>2025-03-23T12:46:44Z</time>
      </trkpt>
      <trkpt lat="48.09432" lon="6.63295">
        <ele>663.1</ele>
        <time>2025-03-23T12:46:51Z</time>
      </trkpt>
      <trkpt lat="48.0943" lon="6.63309">
        <ele>664.1</ele>
        <time>2025-03-23T12:47:00Z</time>
      </trkpt>
      <trkpt lat="48.09431" lon="6.63323">
        <ele>665.1</ele>
        <time>2025-03-23T12:47:08Z</time>
      </trkpt>
      <trkpt lat="48.09429" lon="6.63337">
        <ele>666.1</ele>
        <time>2025-03-23T12:47:16Z</time>
      </trkpt>
      <trkpt lat="48.09429" lon="6.63353">
        <ele>667.2</ele>
        <time>2025-03-23T12:47:24Z</time>
      </trkpt>
      <trkpt lat="48.09431" lon="6.63367">
        <ele>668.3</ele>
        <time>2025-03-23T12:47:32Z</time>
      </trkpt>
      <trkpt lat="48.09433" lon="6.6338">
        <ele>669.4</ele>
        <time>2025-03-23T12:47:39Z</time>
      </trkpt>
      <trkpt lat="48.09434" lon="6.63394">
        <ele>670.6</ele>
        <time>2025-03-23T12:47:47Z</time>
      </trkpt>
      <trkpt lat="48.09435" lon="6.63408">
        <ele>672.1</ele>
        <time>2025-03-23T12:47:56Z</time>
      </trkpt>
      <trkpt lat="48.09439" lon="6.63423">
        <ele>673.5</ele>
        <time>2025-03-23T12:48:04Z</time>
      </trkpt>
      <trkpt lat="48.09439" lon="6.63437">
        <ele>674.7</ele>
        <time>2025-03-23T12:48:15Z</time>
      </trkpt>
      <trkpt lat="48.09439" lon="6.63452">
        <ele>675.9</ele>
        <time>2025-03-23T12:48:26Z</time>
      </trkpt>
      <trkpt lat="48.09444" lon="6.63463">
        <ele>677</ele>
        <time>2025-03-23T12:48:38Z</time>
      </trkpt>
      <trkpt lat="48.09453" lon="6.63468">
        <ele>678</ele>
        <time>2025-03-23T12:48:47Z</time>
      </trkpt>
      <trkpt lat="48.09462" lon="6.63472">
        <ele>678.9</ele>
        <time>2025-03-23T12:48:58Z</time>
      </trkpt>
      <trkpt lat="48.09471" lon="6.63478">
        <ele>679.8</ele>
        <time>2025-03-23T12:49:08Z</time>
      </trkpt>
      <trkpt lat="48.09479" lon="6.63485">
        <ele>680.8</ele>
        <time>2025-03-23T12:49:15Z</time>
      </trkpt>
      <trkpt lat="48.09488" lon="6.63491">
        <ele>681.7</ele>
        <time>2025-03-23T12:49:24Z</time>
      </trkpt>
      <trkpt lat="48.09497" lon="6.63497">
        <ele>682.7</ele>
        <time>2025-03-23T12:49:35Z</time>
      </trkpt>
      <trkpt lat="48.09506" lon="6.63502">
        <ele>683.6</ele>
        <time>2025-03-23T12:49:44Z</time>
      </trkpt>
      <trkpt lat="48.09515" lon="6.63507">
        <ele>684.6</ele>
        <time>2025-03-23T12:49:52Z</time>
      </trkpt>
      <trkpt lat="48.09525" lon="6.63511">
        <ele>685.7</ele>
        <time>2025-03-23T12:50:01Z</time>
      </trkpt>
      <trkpt lat="48.09534" lon="6.63515">
        <ele>686.7</ele>
        <time>2025-03-23T12:50:10Z</time>
      </trkpt>
      <trkpt lat="48.09543" lon="6.63515">
        <ele>687.7</ele>
        <time>2025-03-23T12:50:20Z</time>
      </trkpt>
      <trkpt lat="48.09553" lon="6.63514">
        <ele>688.9</ele>
        <time>2025-03-23T12:50:29Z</time>
      </trkpt>
      <trkpt lat="48.09563" lon="6.63511">
        <ele>690</ele>
        <time>2025-03-23T12:50:41Z</time>
      </trkpt>
      <trkpt lat="48.09572" lon="6.63512">
        <ele>691</ele>
        <time>2025-03-23T12:50:49Z</time>
      </trkpt>
      <trkpt lat="48.09581" lon="6.6351">
        <ele>692</ele>
        <time>2025-03-23T12:50:58Z</time>
      </trkpt>
      <trkpt lat="48.09591" lon="6.63511">
        <ele>693</ele>
        <time>2025-03-23T12:51:05Z</time>
      </trkpt>
      <trkpt lat="48.09601" lon="6.63511">
        <ele>694</ele>
        <time>2025-03-23T12:51:13Z</time>
      </trkpt>
      <trkpt lat="48.09611" lon="6.63512">
        <ele>695</ele>
        <time>2025-03-23T12:51:23Z</time>
      </trkpt>
      <trkpt lat="48.0962" lon="6.63513">
        <ele>695.9</ele>
        <time>2025-03-23T12:51:30Z</time>
      </trkpt>
      <trkpt lat="48.0963" lon="6.63516">
        <ele>697</ele>
        <time>2025-03-23T12:51:41Z</time>
      </trkpt>
      <trkpt lat="48.09642" lon="6.6352">
        <ele>698.5</ele>
        <time>2025-03-23T12:51:51Z</time>
      </trkpt>
      <trkpt lat="48.09644" lon="6.63521">
        <ele>698.8</ele>
        <time>2025-03-23T12:51:57Z</time>
      </trkpt>
      <trkpt lat="48.09647" lon="6.63521">
        <ele>699.1</ele>
        <time>2025-03-23T12:52:06Z</time>
      </trkpt>
      <trkpt lat="48.0965" lon="6.63521">
        <ele>699.4</ele>
        <time>2025-03-23T12:52:17Z</time>
      </trkpt>
      <trkpt lat="48.09652" lon="6.63521">
        <ele>699.7</ele>
        <time>2025-03-23T12:52:25Z</time>
      </trkpt>
      <trkpt lat="48.09655" lon="6.63522">
        <ele>700</ele>
        <time>2025-03-23T12:52:36Z</time>
      </trkpt>
      <trkpt lat="48.09657" lon="6.63522">
        <ele>700.3</ele>
        <time>2025-03-23T12:52:44Z</time>
      </trkpt>
      <trkpt lat="48.0966" lon="6.63522">
        <ele>700.6</ele>
        <time>2025-03-23T12:52:58Z</time>
      </trkpt>
      <trkpt lat="48.09662" lon="6.63522">
        <ele>700.9</ele>
        <time>2025-03-23T12:52:59Z</time>
      </trkpt>
      <trkpt lat="48.09665" lon="6.63523">
        <ele>701.1</ele>
        <time>2025-03-23T12:53:00Z</time>
      </trkpt>
      <trkpt lat="48.09668" lon="6.63523">
        <ele>701.4</ele>
        <time>2025-03-23T12:53:01Z</time>
      </trkpt>
      <trkpt lat="48.0967" lon="6.63523">
        <ele>701.7</ele>
        <time>2025-03-23T12:53:02Z</time>
      </trkpt>
      <trkpt lat="48.09673" lon="6.63523">
        <ele>701.9</ele>
        <time>2025-03-23T12:53:03Z</time>
      </trkpt>
      <trkpt lat="48.09675" lon="6.63523">
        <ele>702.1</ele>
        <time>2025-03-23T12:53:04Z</time>
      </trkpt>
      <trkpt lat="48.09678" lon="6.63524">
        <ele>702.3</ele>
        <time>2025-03-23T12:53:05Z</time>
      </trkpt>
      <trkpt lat="48.0968" lon="6.63524">
        <ele>702.5</ele>
        <time>2025-03-23T12:53:06Z</time>
      </trkpt>
      <trkpt lat="48.09683" lon="6.63524">
        <ele>702.7</ele>
        <time>2025-03-23T12:53:07Z</time>
      </trkpt>
      <trkpt lat="48.09686" lon="6.63524">
        <ele>702.9</ele>
        <time>2025-03-23T12:53:08Z</time>
      </trkpt>
      <trkpt lat="48.09688" lon="6.63525">
        <ele>703</ele>
        <time>2025-03-23T12:53:38Z</time>
      </trkpt>
      <trkpt lat="48.09691" lon="6.63525">
        <ele>703.2</ele>
        <time>2025-03-23T12:53:39Z</time>
      </trkpt>
      <trkpt lat="48.09693" lon="6.63525">
        <ele>703.3</ele>
        <time>2025-03-23T12:53:40Z</time>
      </trkpt>
      <trkpt lat="48.09696" lon="6.63525">
        <ele>703.4</ele>
        <time>2025-03-23T12:53:41Z</time>
      </trkpt>
      <trkpt lat="48.09698" lon="6.63526">
        <ele>703.5</ele>
        <time>2025-03-23T12:53:42Z</time>
      </trkpt>
      <trkpt lat="48.09701" lon="6.63526">
        <ele>704.2</ele>
        <time>2025-03-23T12:53:42Z</time>
      </trkpt>
      <trkpt lat="48.09701" lon="6.63526">
        <ele>704.2</ele>
        <time>2025-03-23T12:53:42Z</time>
      </trkpt>
    </trkseg>
  </trk>
</gpx>